createdAt,value
2017-09-29T00:00:57.382Z,19.63
2017-09-29T00:03:24.673Z,19.90
2017-09-29T00:05:51.978Z,24.70
2017-09-29T00:08:19.255Z,21.80
2017-09-29T00:10:46.528Z,27.30
2017-09-29T00:13:13.845Z,21.07
2017-09-29T00:15:41.107Z,20.70
2017-09-29T00:18:08.385Z,24.20
2017-09-29T00:20:35.690Z,27.83
2017-09-29T00:23:02.998Z,19.70
2017-09-29T00:25:30.287Z,25.57
2017-09-29T00:27:57.547Z,27.23
2017-09-29T00:30:24.845Z,23.73
2017-09-29T00:32:52.115Z,25.70
2017-09-29T00:35:19.427Z,25.13
2017-09-29T00:37:46.693Z,28.53
2017-09-29T00:40:13.959Z,27.50
2017-09-29T00:42:41.249Z,26.13
2017-09-29T00:45:08.551Z,29.00
2017-09-29T00:47:35.830Z,33.87
2017-09-29T00:50:03.102Z,28.67
2017-09-29T00:52:30.391Z,29.20
2017-09-29T00:54:57.702Z,29.43
2017-09-29T00:57:24.970Z,34.70
2017-09-29T00:59:52.238Z,25.03
2017-09-29T01:02:19.539Z,27.33
2017-09-29T01:04:46.811Z,27.30
2017-09-29T01:07:14.111Z,29.13
2017-09-29T01:09:41.431Z,27.70
2017-09-29T01:12:08.700Z,32.10
2017-09-29T01:14:35.975Z,30.37
2017-09-29T01:17:03.292Z,28.10
2017-09-29T01:19:30.563Z,29.03
2017-09-29T01:21:57.838Z,28.40
2017-09-29T01:24:25.134Z,26.93
2017-09-29T01:26:52.411Z,30.33
2017-09-29T01:29:19.735Z,27.23
2017-09-29T01:31:47.004Z,26.80
2017-09-29T01:34:14.274Z,27.33
2017-09-29T01:36:41.575Z,24.23
2017-09-29T01:39:08.843Z,26.50
2017-09-29T01:41:36.151Z,23.23
2017-09-29T01:44:03.422Z,28.57
2017-09-29T01:46:30.691Z,27.63
2017-09-29T01:48:58.003Z,30.50
2017-09-29T01:51:25.272Z,28.73
2017-09-29T01:53:52.540Z,28.70
2017-09-29T01:56:19.847Z,28.70
2017-09-29T01:58:47.116Z,25.67
2017-09-29T02:01:14.387Z,23.77
2017-09-29T02:03:41.729Z,26.10
2017-09-29T02:06:08.995Z,26.33
2017-09-29T02:08:36.281Z,25.30
2017-09-29T02:11:03.574Z,25.70
2017-09-29T02:13:30.871Z,26.17
2017-09-29T02:15:58.147Z,24.57
2017-09-29T02:18:25.427Z,24.80
2017-09-29T02:20:52.722Z,30.50
2017-09-29T02:23:19.990Z,30.10
2017-09-29T02:25:47.284Z,23.30
2017-09-29T02:28:14.587Z,28.03
2017-09-29T02:30:41.856Z,32.40
2017-09-29T02:33:09.124Z,26.97
2017-09-29T02:35:36.458Z,28.70
2017-09-29T02:38:03.771Z,29.10
2017-09-29T02:40:31.048Z,28.50
2017-09-29T02:42:58.347Z,23.27
2017-09-29T02:45:25.623Z,24.13
2017-09-29T02:47:52.928Z,24.13
2017-09-29T02:50:20.210Z,28.70
2017-09-29T02:52:47.520Z,23.17
2017-09-29T02:55:14.793Z,22.83
2017-09-29T02:57:42.401Z,24.40
2017-09-29T03:00:10.170Z,23.97
2017-09-29T03:02:39.283Z,22.97
2017-09-29T03:05:08.655Z,24.47
2017-09-29T03:07:36.959Z,30.70
2017-09-29T03:10:04.305Z,27.07
2017-09-29T03:12:31.595Z,28.73
2017-09-29T03:14:58.872Z,25.10
2017-09-29T03:17:26.167Z,30.10
2017-09-29T03:19:53.439Z,28.57
2017-09-29T03:22:20.735Z,25.67
2017-09-29T03:24:53.928Z,22.47
2017-09-29T03:27:21.222Z,22.97
2017-09-29T03:29:48.525Z,23.57
2017-09-29T03:32:15.796Z,26.07
2017-09-29T03:34:43.098Z,25.37
2017-09-29T03:37:10.382Z,25.83
2017-09-29T03:39:37.651Z,26.47
2017-09-29T03:42:04.954Z,32.20
2017-09-29T03:44:32.228Z,26.43
2017-09-29T03:46:59.498Z,28.93
2017-09-29T03:49:26.807Z,22.47
2017-09-29T03:51:55.104Z,22.80
2017-09-29T03:54:23.595Z,24.20
2017-09-29T03:56:53.100Z,26.63
2017-09-29T03:59:21.564Z,28.87
2017-09-29T04:01:48.953Z,21.53
2017-09-29T04:04:16.251Z,25.20
2017-09-29T04:06:43.532Z,27.10
2017-09-29T04:09:10.816Z,27.27
2017-09-29T04:11:38.083Z,23.53
2017-09-29T04:14:05.379Z,22.93
2017-09-29T04:16:32.656Z,28.33
2017-09-29T04:19:01.107Z,25.37
2017-09-29T04:21:28.377Z,35.93
2017-09-29T04:23:55.667Z,27.30
2017-09-29T04:26:22.930Z,24.80
2017-09-29T04:28:50.207Z,23.50
2017-09-29T04:31:17.495Z,33.27
2017-09-29T04:33:44.771Z,25.90
2017-09-29T04:36:12.071Z,28.87
2017-09-29T04:38:39.335Z,25.93
2017-09-29T04:41:06.623Z,28.73
2017-09-29T04:43:33.895Z,27.17
2017-09-29T04:46:01.183Z,24.30
2017-09-29T04:48:28.451Z,25.77
2017-09-29T04:50:55.773Z,24.40
2017-09-29T04:53:23.055Z,30.93
2017-09-29T04:55:50.378Z,26.90
2017-09-29T04:58:17.655Z,24.80
2017-09-29T05:00:44.924Z,27.43
2017-09-29T05:03:12.208Z,23.80
2017-09-29T05:05:40.096Z,25.63
2017-09-29T05:08:07.388Z,25.83
2017-09-29T05:10:34.662Z,23.47
2017-09-29T05:13:01.955Z,22.57
2017-09-29T05:15:29.238Z,26.23
2017-09-29T05:17:56.529Z,22.73
2017-09-29T05:20:23.798Z,23.50
2017-09-29T05:22:51.152Z,21.10
2017-09-29T05:25:18.423Z,23.17
2017-09-29T05:27:45.729Z,21.90
2017-09-29T05:30:12.998Z,23.10
2017-09-29T05:32:40.295Z,18.13
2017-09-29T05:35:07.576Z,22.10
2017-09-29T05:37:34.871Z,20.70
2017-09-29T05:40:02.144Z,18.80
2017-09-29T05:42:29.443Z,17.20
2017-09-29T05:44:56.710Z,19.50
2017-09-29T05:47:24.007Z,20.47
2017-09-29T05:49:51.283Z,18.40
2017-09-29T05:52:18.576Z,16.37
2017-09-29T05:54:45.867Z,18.43
2017-09-29T05:57:13.175Z,18.50
2017-09-29T05:59:40.447Z,17.30
2017-09-29T06:02:07.722Z,19.03
2017-09-29T06:04:35.023Z,17.53
2017-09-29T06:07:02.335Z,17.93
2017-09-29T06:09:29.606Z,21.80
2017-09-29T06:11:56.879Z,16.27
2017-09-29T06:14:24.171Z,15.47
2017-09-29T06:16:51.451Z,15.60
2017-09-29T06:19:18.761Z,15.30
2017-09-29T06:21:46.032Z,12.73
2017-09-29T06:24:13.300Z,13.50
2017-09-29T06:26:40.594Z,17.50
2017-09-29T06:29:07.866Z,12.43
2017-09-29T06:31:35.167Z,12.50
2017-09-29T06:34:02.732Z,13.10
2017-09-29T06:36:30.023Z,13.23
2017-09-29T06:38:57.306Z,12.30
2017-09-29T06:41:24.595Z,17.30
2017-09-29T06:43:51.863Z,17.50
2017-09-29T06:46:19.159Z,17.00
2017-09-29T06:48:46.456Z,24.23
2017-09-29T06:51:13.737Z,28.03
2017-09-29T06:53:41.031Z,31.83
2017-09-29T06:56:08.313Z,34.53
2017-09-29T06:58:35.602Z,39.47
2017-09-29T07:01:02.911Z,39.07
2017-09-29T07:03:30.183Z,42.67
2017-09-29T07:05:57.480Z,37.10
2017-09-29T07:08:24.788Z,38.87
2017-09-29T07:10:52.092Z,36.90
2017-09-29T07:13:19.358Z,33.80
2017-09-29T07:15:46.658Z,41.43
2017-09-29T07:18:13.967Z,42.30
2017-09-29T07:20:41.239Z,43.33
2017-09-29T07:23:08.512Z,42.10
2017-09-29T07:25:36.284Z,38.70
2017-09-29T07:28:06.629Z,48.67
2017-09-29T07:30:34.369Z,48.40
2017-09-29T07:33:01.795Z,43.97
2017-09-29T07:35:29.072Z,45.93
2017-09-29T07:37:56.346Z,47.57
2017-09-29T07:40:23.651Z,48.30
2017-09-29T07:42:50.952Z,45.43
2017-09-29T07:45:18.223Z,45.23
2017-09-29T07:47:45.527Z,47.87
2017-09-29T07:50:12.812Z,49.00
2017-09-29T07:52:40.084Z,44.50
2017-09-29T07:55:07.384Z,48.53
2017-09-29T07:57:34.650Z,49.43
2017-09-29T08:00:01.954Z,42.63
2017-09-29T08:02:29.256Z,40.70
2017-09-29T08:04:56.524Z,41.10
2017-09-29T08:07:23.840Z,35.20
2017-09-29T08:09:51.115Z,39.70
2017-09-29T08:12:18.388Z,40.07
2017-09-29T08:14:45.687Z,39.20
2017-09-29T08:17:12.963Z,40.63
2017-09-29T08:19:40.253Z,40.20
2017-09-29T08:22:07.520Z,39.37
2017-09-29T08:24:34.821Z,41.57
2017-09-29T08:27:02.088Z,36.83
2017-09-29T08:29:29.411Z,38.93
2017-09-29T08:31:56.681Z,38.47
2017-09-29T08:34:23.947Z,35.80
2017-09-29T08:36:51.247Z,32.47
2017-09-29T08:39:18.547Z,28.13
2017-09-29T08:41:45.810Z,25.37
2017-09-29T08:44:13.110Z,25.60
2017-09-29T08:46:40.387Z,19.47
2017-09-29T08:49:07.706Z,20.73
2017-09-29T08:51:35.643Z,17.77
2017-09-29T08:54:02.921Z,18.20
2017-09-29T08:56:30.395Z,25.67
2017-09-29T08:58:57.703Z,15.70
2017-09-29T09:01:25.004Z,17.00
2017-09-29T09:03:52.280Z,18.43
2017-09-29T09:06:19.578Z,17.43
2017-09-29T09:08:46.896Z,15.00
2017-09-29T09:11:14.179Z,13.17
2017-09-29T09:13:41.487Z,14.87
2017-09-29T09:16:08.770Z,12.27
2017-09-29T09:18:36.048Z,13.00
2017-09-29T09:21:03.347Z,14.13
2017-09-29T09:23:30.639Z,11.37
2017-09-29T09:25:57.910Z,12.50
2017-09-29T09:28:25.213Z,13.50
2017-09-29T09:30:52.499Z,12.60
2017-09-29T09:33:19.799Z,10.83
2017-09-29T09:35:47.063Z,14.27
2017-09-29T09:38:14.375Z,14.50
2017-09-29T09:40:41.651Z,13.80
2017-09-29T09:43:08.956Z,16.93
2017-09-29T09:45:36.215Z,14.90
2017-09-29T09:48:03.513Z,11.97
2017-09-29T09:50:30.775Z,12.43
2017-09-29T09:52:58.070Z,10.63
2017-09-29T09:55:25.349Z,12.10
2017-09-29T09:57:52.636Z,11.80
2017-09-29T10:00:19.942Z,14.40
2017-09-29T10:02:47.204Z,9.60
2017-09-29T10:05:14.468Z,9.63
2017-09-29T10:07:41.790Z,10.77
2017-09-29T10:10:09.054Z,14.37
2017-09-29T10:12:36.346Z,14.57
2017-09-29T10:15:03.635Z,12.07
2017-09-29T10:17:30.949Z,11.80
2017-09-29T10:19:58.236Z,20.17
2017-09-29T10:22:25.540Z,14.30
2017-09-29T10:24:52.866Z,12.30
2017-09-29T10:27:20.142Z,12.40
2017-09-29T10:29:47.414Z,11.90
2017-09-29T10:32:14.703Z,9.27
2017-09-29T10:34:41.977Z,11.90
2017-09-29T10:37:09.276Z,13.90
2017-09-29T10:39:36.539Z,14.53
2017-09-29T10:42:03.855Z,13.53
2017-09-29T10:44:31.127Z,12.87
2017-09-29T10:46:58.400Z,11.13
2017-09-29T10:49:25.695Z,14.23
2017-09-29T10:51:52.985Z,17.03
2017-09-29T10:54:20.287Z,15.73
2017-09-29T10:56:47.557Z,16.23
2017-09-29T10:59:14.855Z,17.70
2017-09-29T11:01:42.146Z,16.27
2017-09-29T11:04:09.462Z,19.33
2017-09-29T11:06:36.739Z,19.63
2017-09-29T11:09:04.037Z,19.40
2017-09-29T11:11:31.336Z,14.80
2017-09-29T11:13:58.633Z,18.70
2017-09-29T11:16:25.931Z,15.53
2017-09-29T11:18:53.230Z,15.67
2017-09-29T11:21:20.510Z,19.33
2017-09-29T11:23:47.815Z,18.20
2017-09-29T11:26:15.087Z,17.93
2017-09-29T11:28:42.396Z,18.37
2017-09-29T11:31:09.672Z,15.57
2017-09-29T11:33:36.947Z,19.77
2017-09-29T11:36:04.252Z,16.40
2017-09-29T11:38:31.535Z,20.17
2017-09-29T11:40:58.823Z,15.90
2017-09-29T11:43:26.140Z,16.47
2017-09-29T11:45:53.463Z,18.67
2017-09-29T11:48:20.739Z,18.17
2017-09-29T11:50:48.032Z,17.20
2017-09-29T11:53:15.344Z,23.00
2017-09-29T11:55:42.680Z,19.30
2017-09-29T11:58:09.959Z,17.47
2017-09-29T12:00:37.235Z,18.27
2017-09-29T12:03:04.536Z,15.83
2017-09-29T12:05:31.861Z,18.83
2017-09-29T12:07:59.138Z,13.23
2017-09-29T12:10:26.452Z,17.40
2017-09-29T12:12:53.718Z,19.03
2017-09-29T12:15:21.012Z,15.80
2017-09-29T12:17:48.523Z,10.30
2017-09-29T12:20:15.784Z,14.90
2017-09-29T12:22:43.102Z,15.27
2017-09-29T12:25:10.364Z,17.77
2017-09-29T12:27:37.675Z,12.33
2017-09-29T12:30:04.959Z,20.90
2017-09-29T12:32:32.259Z,13.80
2017-09-29T12:34:59.553Z,16.57
2017-09-29T12:37:26.857Z,15.60
2017-09-29T12:39:54.124Z,11.60
2017-09-29T12:42:21.436Z,16.20
2017-09-29T12:44:48.735Z,13.03
2017-09-29T12:47:16.024Z,12.07
2017-09-29T12:49:43.311Z,12.30
2017-09-29T12:52:10.589Z,12.10
2017-09-29T12:54:37.888Z,11.90
2017-09-29T12:57:05.168Z,11.40
2017-09-29T12:59:32.463Z,12.17
2017-09-29T13:01:59.743Z,11.93
2017-09-29T13:04:27.038Z,10.93
2017-09-29T13:06:54.614Z,9.70
2017-09-29T13:09:21.912Z,11.20
2017-09-29T13:11:49.217Z,12.70
2017-09-29T13:14:16.488Z,15.47
2017-09-29T13:16:43.804Z,11.67
2017-09-29T13:19:11.083Z,12.00
2017-09-29T13:21:38.364Z,10.73
2017-09-29T13:24:05.659Z,8.93
2017-09-29T13:26:32.919Z,7.70
2017-09-29T13:29:00.229Z,11.33
2017-09-29T13:31:27.484Z,8.43
2017-09-29T13:33:54.746Z,8.07
2017-09-29T13:36:22.208Z,11.00
2017-09-29T13:38:49.498Z,10.63
2017-09-29T13:41:16.770Z,7.50
2017-09-29T13:43:44.050Z,9.30
2017-09-29T13:46:11.349Z,10.20
2017-09-29T13:48:38.627Z,8.50
2017-09-29T13:51:05.936Z,12.63
2017-09-29T13:53:33.205Z,10.07
2017-09-29T13:56:00.475Z,10.90
2017-09-29T13:58:27.767Z,9.87
2017-09-29T14:00:55.071Z,10.80
2017-09-29T14:03:22.368Z,15.67
2017-09-29T14:05:49.628Z,7.43
2017-09-29T14:08:16.923Z,10.43
2017-09-29T14:10:44.200Z,7.00
2017-09-29T14:13:11.499Z,9.07
2017-09-29T14:15:38.759Z,8.33
2017-09-29T14:18:06.026Z,6.50
2017-09-29T14:20:33.331Z,9.33
2017-09-29T14:23:00.604Z,9.70
2017-09-29T14:25:27.907Z,11.97
2017-09-29T14:27:55.176Z,8.47
2017-09-29T14:30:22.450Z,11.03
2017-09-29T14:32:49.754Z,10.20
2017-09-29T14:35:17.028Z,7.87
2017-09-29T14:37:44.298Z,16.07
2017-09-29T14:40:11.588Z,9.80
2017-09-29T14:42:38.854Z,11.90
2017-09-29T14:45:06.150Z,14.50
2017-09-29T14:47:33.446Z,7.03
2017-09-29T14:50:00.723Z,10.63
2017-09-29T14:52:27.995Z,9.50
2017-09-29T14:54:55.292Z,11.50
2017-09-29T14:57:22.564Z,9.10
2017-09-29T14:59:49.853Z,6.20
2017-09-29T15:02:17.128Z,9.37
2017-09-29T15:04:44.467Z,6.03
2017-09-29T15:07:11.778Z,7.20
2017-09-29T15:09:39.066Z,7.20
2017-09-29T15:12:06.339Z,13.23
2017-09-29T15:14:33.608Z,7.70
2017-09-29T15:17:00.912Z,5.90
2017-09-29T15:19:28.182Z,9.03
2017-09-29T15:21:55.479Z,11.30
2017-09-29T15:24:22.758Z,5.43
2017-09-29T15:26:50.075Z,13.27
2017-09-29T15:29:17.335Z,6.50
2017-09-29T15:31:44.599Z,7.03
2017-09-29T15:34:11.894Z,10.50
2017-09-29T15:36:39.200Z,6.30
2017-09-29T15:39:06.478Z,6.13
2017-09-29T15:41:33.755Z,7.53
2017-09-29T15:44:01.047Z,5.20
2017-09-29T15:46:28.324Z,10.43
2017-09-29T15:48:55.614Z,8.90
2017-09-29T15:51:22.891Z,10.20
2017-09-29T15:53:50.174Z,6.57
2017-09-29T15:56:17.471Z,11.83
2017-09-29T15:58:44.771Z,7.43
2017-09-29T16:01:12.048Z,10.20
2017-09-29T16:03:39.354Z,7.17
2017-09-29T16:06:06.646Z,7.13
2017-09-29T16:08:33.915Z,5.50
2017-09-29T16:11:01.199Z,8.07
2017-09-29T16:13:28.467Z,10.37
2017-09-29T16:15:55.757Z,7.20
2017-09-29T16:18:23.030Z,8.20
2017-09-29T16:20:50.325Z,10.30
2017-09-29T16:23:17.599Z,6.10
2017-09-29T16:25:44.931Z,5.93
2017-09-29T16:28:12.195Z,7.13
2017-09-29T16:30:39.459Z,5.60
2017-09-29T16:33:06.776Z,8.53
2017-09-29T16:35:34.036Z,7.00
2017-09-29T16:38:01.304Z,8.13
2017-09-29T16:40:28.598Z,10.13
2017-09-29T16:42:55.880Z,10.40
2017-09-29T16:45:23.186Z,6.43
2017-09-29T16:47:50.443Z,6.37
2017-09-29T16:50:17.738Z,10.77
2017-09-29T16:52:45.000Z,8.43
2017-09-29T16:55:12.278Z,7.47
2017-09-29T16:57:39.570Z,9.23
2017-09-29T17:00:06.836Z,7.30
2017-09-29T17:02:34.130Z,8.20
2017-09-29T17:05:01.391Z,9.83
2017-09-29T17:07:28.687Z,12.30
2017-09-29T17:09:55.956Z,9.13
2017-09-29T17:12:23.245Z,9.07
2017-09-29T17:14:50.526Z,6.13
2017-09-29T17:17:17.804Z,8.70
2017-09-29T17:19:45.104Z,6.43
2017-09-29T17:22:12.586Z,8.63
2017-09-29T17:24:39.871Z,8.07
2017-09-29T17:27:07.173Z,9.87
2017-09-29T17:29:34.694Z,5.77
2017-09-29T17:32:01.951Z,7.93
2017-09-29T17:34:29.246Z,14.90
2017-09-29T17:36:56.551Z,8.53
2017-09-29T17:39:23.813Z,8.43
2017-09-29T17:41:51.072Z,15.77
2017-09-29T17:44:18.375Z,11.30
2017-09-29T17:46:45.683Z,6.87
2017-09-29T17:49:12.944Z,13.73
2017-09-29T17:51:40.218Z,7.40
2017-09-29T17:54:07.658Z,8.33
2017-09-29T17:56:34.928Z,7.13
2017-09-29T17:59:02.230Z,9.03
2017-09-29T18:01:29.519Z,7.03
2017-09-29T18:03:56.787Z,15.67
2017-09-29T18:06:24.104Z,7.60
2017-09-29T18:08:51.375Z,10.30
2017-09-29T18:11:18.649Z,13.80
2017-09-29T18:13:45.935Z,9.83
2017-09-29T18:16:13.223Z,20.60
2017-09-29T18:18:40.535Z,15.73
2017-09-29T18:21:07.935Z,14.40
2017-09-29T18:23:35.322Z,18.67
2017-09-29T18:26:02.635Z,10.57
2017-09-29T18:28:29.991Z,12.27
2017-09-29T18:30:57.308Z,9.77
2017-09-29T18:33:24.616Z,8.90
2017-09-29T18:35:51.895Z,10.20
2017-09-29T18:38:19.207Z,13.63
2017-09-29T18:40:48.464Z,14.83
2017-09-29T18:43:16.472Z,9.53
2017-09-29T18:45:54.423Z,7.80
2017-09-29T18:48:21.698Z,11.43
2017-09-29T18:50:48.970Z,14.30
2017-09-29T18:53:16.269Z,11.70
2017-09-29T18:55:43.548Z,10.57
2017-09-29T18:58:10.867Z,8.77
2017-09-29T19:00:38.131Z,9.73
2017-09-29T19:03:05.399Z,9.90
2017-09-29T19:05:32.701Z,14.03
2017-09-29T19:07:59.980Z,11.80
2017-09-29T19:10:27.282Z,12.90
2017-09-29T19:12:54.550Z,9.67
2017-09-29T19:15:21.857Z,10.53
2017-09-29T19:17:49.238Z,12.90
2017-09-29T19:20:16.508Z,12.70
2017-09-29T19:22:43.815Z,14.67
2017-09-29T19:25:11.082Z,13.40
2017-09-29T19:27:38.339Z,8.80
2017-09-29T19:30:05.622Z,9.40
2017-09-29T19:32:32.902Z,11.73
2017-09-29T19:35:00.199Z,11.73
2017-09-29T19:37:27.468Z,16.73
2017-09-29T19:39:54.732Z,9.70
2017-09-29T19:42:22.007Z,15.93
2017-09-29T19:44:49.278Z,8.90
2017-09-29T19:47:16.579Z,13.83
2017-09-29T19:49:43.848Z,11.03
2017-09-29T19:52:11.138Z,13.83
2017-09-29T19:54:38.424Z,13.73
2017-09-29T19:57:05.688Z,9.00
2017-09-29T19:59:32.970Z,12.77
2017-09-29T20:02:00.263Z,19.40
2017-09-29T20:04:27.535Z,16.40
2017-09-29T20:06:54.834Z,12.40
2017-09-29T20:09:22.100Z,13.43
2017-09-29T20:11:49.371Z,15.07
2017-09-29T20:14:16.675Z,17.67
2017-09-29T20:16:43.940Z,14.97
2017-09-29T20:19:11.211Z,13.63
2017-09-29T20:21:38.519Z,12.77
2017-09-29T20:24:05.797Z,11.63
2017-09-29T20:26:33.095Z,13.63
2017-09-29T20:29:00.419Z,15.77
2017-09-29T20:31:27.678Z,11.63
2017-09-29T20:33:54.966Z,16.70
2017-09-29T20:36:22.267Z,15.93
2017-09-29T20:38:49.539Z,14.80
2017-09-29T20:41:16.821Z,13.40
2017-09-29T20:43:44.118Z,12.57
2017-09-29T20:46:11.391Z,14.70
2017-09-29T20:48:38.661Z,16.30
2017-09-29T20:51:05.950Z,13.63
2017-09-29T20:53:33.224Z,15.40
2017-09-29T20:56:00.538Z,13.20
2017-09-29T20:58:27.843Z,14.17
2017-09-29T21:00:55.094Z,12.80
2017-09-29T21:03:22.404Z,13.17
2017-09-29T21:05:49.679Z,14.93
2017-09-29T21:08:16.988Z,15.23
2017-09-29T21:10:44.282Z,13.30
2017-09-29T21:13:11.553Z,12.63
2017-09-29T21:15:38.864Z,21.33
2017-09-29T21:18:06.136Z,16.77
2017-09-29T21:20:33.406Z,11.43
2017-09-29T21:23:00.729Z,20.37
2017-09-29T21:25:28.064Z,16.30
2017-09-29T21:27:55.348Z,19.97
2017-09-29T21:30:22.620Z,12.97
2017-09-29T21:32:49.931Z,14.20
2017-09-29T21:35:17.230Z,13.17
2017-09-29T21:37:44.550Z,11.37
2017-09-29T21:40:11.822Z,16.67
2017-09-29T21:42:39.144Z,15.20
2017-09-29T21:45:06.449Z,15.23
2017-09-29T21:47:33.747Z,16.40
2017-09-29T21:50:01.059Z,12.70
2017-09-29T21:52:28.363Z,18.13
2017-09-29T21:54:55.687Z,12.00
2017-09-29T21:57:22.959Z,15.53
2017-09-29T21:59:50.290Z,20.83
2017-09-29T22:02:17.724Z,17.23
2017-09-29T22:04:44.998Z,15.50
2017-09-29T22:07:12.320Z,15.70
2017-09-29T22:09:39.607Z,14.57
2017-09-29T22:12:06.891Z,19.43
2017-09-29T22:14:34.207Z,15.87
2017-09-29T22:17:01.487Z,16.23
2017-09-29T22:19:28.803Z,15.03
2017-09-29T22:21:56.099Z,15.13
2017-09-29T22:24:23.370Z,19.60
2017-09-29T22:26:50.686Z,19.83
2017-09-29T22:29:17.976Z,15.73
2017-09-29T22:31:45.257Z,15.17
2017-09-29T22:34:12.625Z,18.90
2017-09-29T22:36:39.971Z,19.13
2017-09-29T22:39:07.271Z,18.70
2017-09-29T22:41:34.579Z,18.67
2017-09-29T22:44:01.873Z,24.53
2017-09-29T22:46:29.159Z,19.93
2017-09-29T22:48:56.472Z,19.60
2017-09-29T22:51:23.752Z,22.30
2017-09-29T22:53:51.034Z,18.57
2017-09-29T22:56:18.338Z,21.10
2017-09-29T22:58:45.627Z,23.50
2017-09-29T23:01:12.936Z,25.63
2017-09-29T23:03:40.247Z,24.77
2017-09-29T23:06:07.532Z,21.13
2017-09-29T23:08:34.810Z,22.40
2017-09-29T23:11:02.111Z,25.90
2017-09-29T23:13:29.381Z,23.50
2017-09-29T23:15:56.667Z,21.90
2017-09-29T23:18:23.973Z,22.83
2017-09-29T23:20:51.283Z,24.87
2017-09-29T23:23:18.586Z,22.43
2017-09-29T23:25:45.868Z,20.03
2017-09-29T23:28:13.179Z,20.70
2017-09-29T23:30:40.475Z,18.93
2017-09-29T23:33:07.758Z,23.30
2017-09-29T23:35:35.070Z,22.33
2017-09-29T23:38:02.344Z,22.90
2017-09-29T23:40:29.624Z,21.30
2017-09-29T23:42:56.958Z,20.87
2017-09-29T23:45:24.234Z,20.53
2017-09-29T23:47:51.515Z,27.40
2017-09-29T23:50:18.814Z,19.47
2017-09-29T23:52:46.122Z,28.90
2017-09-29T23:55:13.423Z,20.80
2017-09-29T23:57:40.698Z,19.93
